createdAt,value
2022-10-19T00:01:23.607Z,100.00
2022-10-19T00:04:26.139Z,100.00
2022-10-19T00:06:54.720Z,100.00
2022-10-19T00:09:22.726Z,100.00
2022-10-19T00:11:51.439Z,100.00
2022-10-19T00:14:23.651Z,100.00
2022-10-19T00:16:54.420Z,100.00
2022-10-19T00:19:26.359Z,100.00
2022-10-19T00:21:54.608Z,100.00
2022-10-19T00:24:22.420Z,100.00
2022-10-19T00:26:50.090Z,100.00
2022-10-19T00:29:17.906Z,100.00
2022-10-19T00:31:45.715Z,100.00
2022-10-19T00:34:13.440Z,100.00
2022-10-19T00:36:41.901Z,100.00
2022-10-19T00:39:14.385Z,100.00
2022-10-19T00:41:45.096Z,100.00
2022-10-19T00:44:12.670Z,100.00
2022-10-19T00:46:44.294Z,100.00
2022-10-19T00:49:43.686Z,100.00
2022-10-19T00:52:18.067Z,100.00
2022-10-19T00:54:48.883Z,100.00
2022-10-19T00:57:16.765Z,100.00
2022-10-19T00:59:45.982Z,100.00
2022-10-19T01:02:14.018Z,100.00
2022-10-19T01:04:47.655Z,100.00
2022-10-19T01:07:15.779Z,100.00
2022-10-19T01:09:43.389Z,100.00
2022-10-19T01:12:39.120Z,100.00
2022-10-19T01:15:26.942Z,100.00
2022-10-19T01:18:10.009Z,100.00
2022-10-19T01:20:55.723Z,100.00
2022-10-19T01:23:49.456Z,100.00
2022-10-19T01:26:47.541Z,100.00
2022-10-19T01:29:36.714Z,100.00
2022-10-19T01:32:47.038Z,100.00
2022-10-19T01:35:41.324Z,100.00
2022-10-19T01:38:30.618Z,100.00
2022-10-19T01:41:57.867Z,100.00
2022-10-19T01:44:43.877Z,100.00
2022-10-19T01:47:36.765Z,100.00
2022-10-19T01:50:14.718Z,100.00
2022-10-19T01:52:43.203Z,100.00
2022-10-19T01:55:15.996Z,100.00
2022-10-19T01:57:48.043Z,100.00
2022-10-19T02:00:17.070Z,100.00
2022-10-19T02:02:50.297Z,100.00
2022-10-19T02:05:21.865Z,100.00
2022-10-19T02:07:57.879Z,100.00
2022-10-19T02:10:27.779Z,100.00
2022-10-19T02:12:56.430Z,100.00
2022-10-19T02:15:27.388Z,100.00
2022-10-19T02:17:59.663Z,100.00
2022-10-19T02:20:28.548Z,100.00
2022-10-19T02:22:56.736Z,100.00
2022-10-19T02:25:25.404Z,100.00
2022-10-19T02:27:53.931Z,100.00
2022-10-19T02:30:22.359Z,100.00
2022-10-19T02:32:51.006Z,100.00
2022-10-19T02:35:18.979Z,100.00
2022-10-19T02:37:46.630Z,100.00
2022-10-19T02:40:14.675Z,100.00
2022-10-19T02:42:57.806Z,100.00
2022-10-19T02:45:31.915Z,100.00
2022-10-19T02:48:12.940Z,100.00
2022-10-19T02:50:52.106Z,100.00
2022-10-19T02:53:19.913Z,100.00
2022-10-19T02:55:49.518Z,100.00
2022-10-19T02:58:17.579Z,99.88
2022-10-19T03:00:45.381Z,99.95
2022-10-19T03:03:13.045Z,99.98
2022-10-19T03:05:40.694Z,99.89
2022-10-19T03:08:08.410Z,99.98
2022-10-19T03:10:36.155Z,99.83
2022-10-19T03:13:03.790Z,99.76
2022-10-19T03:15:31.436Z,99.34
2022-10-19T03:17:59.133Z,99.27
2022-10-19T03:20:26.821Z,99.01
2022-10-19T03:22:54.716Z,99.37
2022-10-19T03:25:22.345Z,99.27
2022-10-19T03:27:49.973Z,99.39
2022-10-19T03:30:17.760Z,99.66
2022-10-19T03:32:45.539Z,99.61
2022-10-19T03:35:13.223Z,99.43
2022-10-19T03:37:40.861Z,99.31
2022-10-19T03:40:09.486Z,99.03
2022-10-19T03:42:37.107Z,99.31
2022-10-19T03:45:05.772Z,98.82
2022-10-19T03:47:33.660Z,98.66
2022-10-19T03:50:01.593Z,98.84
2022-10-19T03:52:29.319Z,99.08
2022-10-19T03:54:56.988Z,99.05
2022-10-19T03:57:24.684Z,99.21
2022-10-19T03:59:52.347Z,98.79
2022-10-19T04:02:20.101Z,98.70
2022-10-19T04:04:47.765Z,98.76
2022-10-19T04:07:15.414Z,99.28
2022-10-19T04:09:43.096Z,99.14
2022-10-19T04:12:10.705Z,98.93
2022-10-19T04:14:56.305Z,99.07
2022-10-19T04:17:25.939Z,98.80
2022-10-19T04:19:53.631Z,98.68
2022-10-19T04:22:21.301Z,98.47
2022-10-19T04:24:48.953Z,98.62
2022-10-19T04:27:16.725Z,98.65
2022-10-19T04:29:44.380Z,98.50
2022-10-19T04:32:12.129Z,98.33
2022-10-19T04:34:40.242Z,98.49
2022-10-19T04:37:08.170Z,98.26
2022-10-19T04:39:39.495Z,98.04
2022-10-19T04:42:07.152Z,97.82
2022-10-19T04:44:34.784Z,97.75
2022-10-19T04:47:02.536Z,98.07
2022-10-19T04:49:30.183Z,97.74
2022-10-19T04:51:57.898Z,97.95
2022-10-19T04:54:25.662Z,98.26
2022-10-19T04:56:53.847Z,97.80
2022-10-19T04:59:21.555Z,97.84
2022-10-19T05:01:49.240Z,97.25
2022-10-19T05:04:16.932Z,97.80
2022-10-19T05:06:44.610Z,97.95
2022-10-19T05:09:12.654Z,97.68
2022-10-19T05:11:40.374Z,97.41
2022-10-19T05:14:08.615Z,97.67
2022-10-19T05:16:36.370Z,97.64
2022-10-19T05:19:04.149Z,97.06
2022-10-19T05:21:31.896Z,97.33
2022-10-19T05:23:59.619Z,96.02
2022-10-19T05:26:28.980Z,96.73
2022-10-19T05:29:04.743Z,96.52
2022-10-19T05:31:34.184Z,96.40
2022-10-19T05:34:03.987Z,96.04
2022-10-19T05:36:36.705Z,95.82
2022-10-19T05:39:15.040Z,95.75
2022-10-19T05:41:44.840Z,95.09
2022-10-19T05:44:22.241Z,94.41
2022-10-19T05:46:51.418Z,94.27
2022-10-19T05:49:21.909Z,93.55
2022-10-19T05:51:50.300Z,93.56
2022-10-19T05:54:18.967Z,93.81
2022-10-19T05:56:47.288Z,93.18
2022-10-19T05:59:19.196Z,93.66
2022-10-19T06:01:47.948Z,93.86
2022-10-19T06:06:45.772Z,93.43
2022-10-19T06:09:13.506Z,92.94
2022-10-19T06:11:42.526Z,92.86
2022-10-19T06:14:16.355Z,92.92
2022-10-19T06:16:46.066Z,92.85
2022-10-19T06:19:14.335Z,93.20
2022-10-19T06:21:46.008Z,92.73
2022-10-19T06:24:14.600Z,92.59
2022-10-19T06:26:42.572Z,92.05
2022-10-19T06:29:10.673Z,91.99
2022-10-19T06:31:38.559Z,91.58
2022-10-19T06:34:06.790Z,91.95
2022-10-19T06:36:34.748Z,91.71
2022-10-19T06:39:03.034Z,91.64
2022-10-19T06:41:32.448Z,90.85
2022-10-19T06:44:03.024Z,90.53
2022-10-19T06:46:32.229Z,91.09
2022-10-19T06:49:01.975Z,90.76
2022-10-19T06:51:33.901Z,91.05
2022-10-19T06:54:01.882Z,90.99
2022-10-19T06:56:29.648Z,90.72
2022-10-19T06:58:58.341Z,90.18
2022-10-19T07:01:26.135Z,90.82
2022-10-19T07:03:55.214Z,90.20
2022-10-19T07:06:23.949Z,90.51
2022-10-19T07:08:52.987Z,90.84
2022-10-19T07:11:22.495Z,90.38
2022-10-19T07:13:52.942Z,90.57
2022-10-19T07:16:21.880Z,91.35
2022-10-19T07:18:53.289Z,90.92
2022-10-19T07:21:23.183Z,89.70
2022-10-19T07:23:51.513Z,90.31
2022-10-19T07:26:27.728Z,89.88
2022-10-19T07:28:57.607Z,89.26
2022-10-19T07:31:28.007Z,89.05
2022-10-19T07:34:02.391Z,88.80
2022-10-19T07:36:33.634Z,89.00
2022-10-19T07:39:02.778Z,89.52
2022-10-19T07:41:30.438Z,89.21
2022-10-19T07:43:58.129Z,89.19
2022-10-19T07:46:29.232Z,88.51
2022-10-19T07:48:56.910Z,88.46
2022-10-19T07:51:25.270Z,89.44
2022-10-19T07:53:53.290Z,88.71
2022-10-19T07:56:23.973Z,89.49
2022-10-19T07:58:55.208Z,88.73
2022-10-19T08:01:26.883Z,88.42
2022-10-19T08:04:43.362Z,87.92
2022-10-19T08:06:45.248Z,88.14
2022-10-19T08:09:27.689Z,88.25
2022-10-19T08:12:00.851Z,87.27
2022-10-19T08:14:28.605Z,87.62
2022-10-19T08:16:56.426Z,88.71
2022-10-19T08:19:24.232Z,85.84
2022-10-19T08:21:52.998Z,86.05
2022-10-19T08:24:21.137Z,86.12
2022-10-19T08:26:51.255Z,85.53
2022-10-19T08:29:21.070Z,86.62
2022-10-19T08:31:50.159Z,86.79
2022-10-19T08:34:17.877Z,86.75
2022-10-19T08:36:47.037Z,87.09
2022-10-19T08:39:14.805Z,87.40
2022-10-19T08:42:16.109Z,88.15
2022-10-19T08:45:07.766Z,87.81
2022-10-19T08:47:53.766Z,87.45
2022-10-19T08:50:34.315Z,87.72
2022-10-19T08:53:06.721Z,87.06
2022-10-19T08:56:45.713Z,87.78
2022-10-19T08:59:36.498Z,87.66
2022-10-19T09:02:54.266Z,87.31
2022-10-19T09:05:32.494Z,86.94
2022-10-19T09:08:00.285Z,86.44
2022-10-19T09:10:37.381Z,86.74
2022-10-19T09:13:36.385Z,86.38
2022-10-19T09:16:19.415Z,86.73
2022-10-19T09:18:47.199Z,86.18
2022-10-19T09:21:30.957Z,85.48
2022-10-19T09:24:28.285Z,85.48
2022-10-19T09:27:00.462Z,84.36
2022-10-19T09:29:43.734Z,84.68
2022-10-19T09:32:20.850Z,83.74
2022-10-19T09:34:54.251Z,82.43
2022-10-19T09:37:26.347Z,82.42
2022-10-19T09:39:56.205Z,81.42
2022-10-19T09:42:30.240Z,80.94
2022-10-19T09:45:01.772Z,79.62
2022-10-19T09:47:39.682Z,78.77
2022-10-19T09:50:25.994Z,79.45
2022-10-19T09:53:02.614Z,80.22
2022-10-19T09:55:43.866Z,78.69
2022-10-19T09:58:14.388Z,78.74
2022-10-19T10:00:50.472Z,79.82
2022-10-19T10:03:40.765Z,80.18
2022-10-19T10:06:14.311Z,79.72
2022-10-19T10:08:57.819Z,78.27
2022-10-19T10:11:37.757Z,78.40
2022-10-19T10:14:30.301Z,78.45
2022-10-19T10:17:08.016Z,79.33
2022-10-19T10:19:36.110Z,81.56
2022-10-19T10:22:04.474Z,82.31
2022-10-19T10:24:34.246Z,82.17
2022-10-19T10:27:06.223Z,82.93
2022-10-19T10:29:38.949Z,83.66
2022-10-19T10:32:19.727Z,86.30
2022-10-19T10:35:15.230Z,86.19
2022-10-19T10:37:46.981Z,86.62
2022-10-19T10:40:27.867Z,88.01
2022-10-19T10:43:08.774Z,87.47
2022-10-19T10:45:45.198Z,87.50
2022-10-19T10:48:38.304Z,87.91
2022-10-19T10:51:32.449Z,87.73
2022-10-19T10:54:31.626Z,88.40
2022-10-19T10:57:12.988Z,86.65
2022-10-19T11:00:08.017Z,86.35
2022-10-19T11:03:06.482Z,86.10
2022-10-19T11:05:45.332Z,85.78
2022-10-19T11:08:22.538Z,86.74
2022-10-19T11:11:24.952Z,85.97
2022-10-19T11:14:00.255Z,85.09
2022-10-19T11:16:50.149Z,83.75
2022-10-19T11:19:45.452Z,82.40
2022-10-19T11:22:58.577Z,80.90
2022-10-19T11:26:04.124Z,80.75
2022-10-19T11:29:00.207Z,79.75
2022-10-19T11:31:55.238Z,78.61
2022-10-19T11:34:56.077Z,77.78
2022-10-19T11:38:17.587Z,79.84
2022-10-19T11:41:17.746Z,78.75
2022-10-19T11:44:32.739Z,80.59
2022-10-19T11:47:43.909Z,77.66
2022-10-19T11:50:36.192Z,77.89
2022-10-19T11:53:10.073Z,75.72
2022-10-19T11:55:58.325Z,75.17
2022-10-19T11:58:43.418Z,72.36
2022-10-19T12:01:52.191Z,71.60
2022-10-19T12:04:51.895Z,70.81
2022-10-19T12:08:14.089Z,69.98
2022-10-19T12:10:54.893Z,71.00
2022-10-19T12:13:36.438Z,72.73
2022-10-19T12:16:07.230Z,73.30
2022-10-19T12:18:45.589Z,73.21
2022-10-19T12:21:38.938Z,72.39
2022-10-19T12:24:13.848Z,72.95
2022-10-19T12:26:43.762Z,73.09
2022-10-19T12:29:22.631Z,72.80
2022-10-19T12:31:52.458Z,73.22
2022-10-19T12:34:50.766Z,73.15
2022-10-19T12:37:47.388Z,72.12
2022-10-19T12:40:46.246Z,70.68
2022-10-19T12:43:31.483Z,69.53
2022-10-19T12:46:49.603Z,69.32
2022-10-19T12:49:26.289Z,68.89
2022-10-19T12:51:56.629Z,68.87
2022-10-19T12:54:28.184Z,68.18
2022-10-19T12:56:58.549Z,67.45
2022-10-19T12:59:31.417Z,67.83
2022-10-19T13:02:01.093Z,68.02
2022-10-19T13:04:36.141Z,67.88
2022-10-19T13:07:10.820Z,66.54
2022-10-19T13:09:42.625Z,66.87
2022-10-19T13:12:16.232Z,65.80
2022-10-19T13:15:05.016Z,64.39
2022-10-19T13:17:36.795Z,63.42
2022-10-19T13:20:28.525Z,62.42
2022-10-19T13:22:59.340Z,61.98
2022-10-19T13:25:35.111Z,63.49
2022-10-19T13:28:05.836Z,65.11
2022-10-19T13:30:37.168Z,65.16
2022-10-19T13:33:29.852Z,64.46
2022-10-19T13:36:00.501Z,63.93
2022-10-19T13:39:07.987Z,63.71
2022-10-19T13:41:38.784Z,60.80
2022-10-19T13:44:12.007Z,60.47
2022-10-19T13:47:29.554Z,59.85
2022-10-19T13:50:21.898Z,57.67
2022-10-19T13:53:15.598Z,58.66
2022-10-19T13:56:01.767Z,59.91
2022-10-19T13:59:19.463Z,59.61
2022-10-19T14:02:41.218Z,59.69
2022-10-19T14:08:31.061Z,60.91
2022-10-19T14:11:19.207Z,61.65
2022-10-19T14:14:18.166Z,61.66
2022-10-19T14:16:54.446Z,58.51
2022-10-19T14:19:41.290Z,56.93
2022-10-19T14:22:34.515Z,57.56
2022-10-19T14:25:20.815Z,57.21
2022-10-19T14:27:56.711Z,58.06
2022-10-19T14:30:31.358Z,58.60
2022-10-19T14:33:02.526Z,58.71
2022-10-19T14:35:35.566Z,58.52
2022-10-19T14:38:16.483Z,57.84
2022-10-19T14:40:44.178Z,58.34
2022-10-19T14:43:27.633Z,58.99
2022-10-19T14:46:13.680Z,59.91
2022-10-19T14:48:50.505Z,59.92
2022-10-19T14:51:35.567Z,60.77
2022-10-19T14:54:26.372Z,61.61
2022-10-19T14:57:24.711Z,62.09
2022-10-19T14:59:58.874Z,62.53
2022-10-19T15:02:44.267Z,62.86
2022-10-19T15:05:26.469Z,62.47
2022-10-19T15:07:55.128Z,62.52
2022-10-19T15:10:39.226Z,62.56
2022-10-19T15:13:07.673Z,63.05
2022-10-19T15:15:36.253Z,62.83
2022-10-19T15:18:06.427Z,62.90
2022-10-19T15:20:49.351Z,62.92
2022-10-19T15:23:42.741Z,62.82
2022-10-19T15:26:26.926Z,62.99
2022-10-19T15:29:07.916Z,62.59
2022-10-19T15:31:35.972Z,62.47
2022-10-19T15:34:05.203Z,62.63
2022-10-19T15:36:33.501Z,62.71
2022-10-19T15:39:24.470Z,63.01
2022-10-19T15:41:53.111Z,63.70
2022-10-19T15:44:43.401Z,64.60
2022-10-19T15:47:14.431Z,64.68
2022-10-19T15:49:42.102Z,64.91
2022-10-19T15:52:22.173Z,65.39
2022-10-19T15:54:56.528Z,65.59
2022-10-19T15:57:36.918Z,65.61
2022-10-19T16:00:17.748Z,65.84
2022-10-19T16:02:45.597Z,65.78
2022-10-19T16:05:13.257Z,66.21
2022-10-19T16:07:41.831Z,66.26
2022-10-19T16:10:18.727Z,65.98
2022-10-19T16:12:46.504Z,66.47
2022-10-19T16:15:21.993Z,66.60
2022-10-19T16:17:55.559Z,66.75
2022-10-19T16:20:25.512Z,66.29
2022-10-19T16:22:54.059Z,66.45
2022-10-19T16:25:21.837Z,66.35
2022-10-19T16:27:49.676Z,66.72
2022-10-19T16:30:17.693Z,66.69
2022-10-19T16:32:48.567Z,66.76
2022-10-19T16:35:17.050Z,66.60
2022-10-19T16:37:44.836Z,66.91
2022-10-19T16:40:12.601Z,67.17
2022-10-19T16:42:40.443Z,66.87
2022-10-19T16:45:10.298Z,66.91
2022-10-19T16:47:37.960Z,67.02
2022-10-19T16:50:06.675Z,67.36
2022-10-19T16:52:34.907Z,67.70
2022-10-19T16:55:03.218Z,67.93
2022-10-19T16:57:30.877Z,68.34
2022-10-19T16:59:58.562Z,68.10
2022-10-19T17:02:26.473Z,68.45
2022-10-19T17:04:54.226Z,68.76
2022-10-19T17:07:22.253Z,68.88
2022-10-19T17:09:54.472Z,68.97
2022-10-19T17:12:22.833Z,68.97
2022-10-19T17:14:51.553Z,69.28
2022-10-19T17:17:19.326Z,69.41
2022-10-19T17:19:48.211Z,69.39
2022-10-19T17:22:15.927Z,69.68
2022-10-19T17:24:46.199Z,69.94
2022-10-19T17:27:14.097Z,69.85
2022-10-19T17:29:42.380Z,69.98
2022-10-19T17:32:10.061Z,69.91
2022-10-19T17:34:37.868Z,69.78
2022-10-19T17:37:07.039Z,69.58
2022-10-19T17:39:34.748Z,69.69
2022-10-19T17:42:04.888Z,69.36
2022-10-19T17:44:32.603Z,69.05
2022-10-19T17:47:01.234Z,68.99
2022-10-19T17:49:29.860Z,68.90
2022-10-19T17:51:58.085Z,68.86
2022-10-19T17:54:25.913Z,69.26
2022-10-19T17:56:54.457Z,69.41
2022-10-19T17:59:34.987Z,69.37
2022-10-19T18:02:04.750Z,69.91
2022-10-19T18:04:32.689Z,69.94
2022-10-19T18:07:00.514Z,70.28
2022-10-19T18:09:28.322Z,70.54
2022-10-19T18:11:56.023Z,70.90
2022-10-19T18:14:23.676Z,71.14
2022-10-19T18:16:52.006Z,71.26
2022-10-19T18:19:19.796Z,71.34
2022-10-19T18:21:49.116Z,71.58
2022-10-19T18:24:20.163Z,71.94
2022-10-19T18:26:50.535Z,72.14
2022-10-19T18:29:22.943Z,72.40
2022-10-19T18:31:52.424Z,72.37
2022-10-19T18:34:24.669Z,72.51
2022-10-19T18:36:53.588Z,72.73
2022-10-19T18:39:23.142Z,72.92
2022-10-19T18:41:54.495Z,73.15
2022-10-19T18:44:26.517Z,73.33
2022-10-19T18:46:56.830Z,73.57
2022-10-19T18:49:24.943Z,73.51
2022-10-19T18:51:55.429Z,73.74
2022-10-19T18:54:27.752Z,73.80
2022-10-19T18:56:55.813Z,73.70
2022-10-19T18:59:23.786Z,73.94
2022-10-19T19:01:53.099Z,73.99
2022-10-19T19:04:21.180Z,73.66
2022-10-19T19:06:48.999Z,73.90
2022-10-19T19:09:18.938Z,74.30
2022-10-19T19:11:46.854Z,74.71
2022-10-19T19:14:18.478Z,74.99
2022-10-19T19:16:47.294Z,75.34
2022-10-19T19:19:17.934Z,75.37
2022-10-19T19:21:46.564Z,75.92
2022-10-19T19:24:18.425Z,76.20
2022-10-19T19:26:52.402Z,76.52
2022-10-19T19:29:21.627Z,76.97
2022-10-19T19:31:50.738Z,77.03
2022-10-19T19:34:18.457Z,77.35
2022-10-19T19:36:49.349Z,77.48
2022-10-19T19:39:20.594Z,77.58
2022-10-19T19:41:49.673Z,77.73
2022-10-19T19:44:17.911Z,78.08
2022-10-19T19:46:47.742Z,78.00
2022-10-19T19:49:16.057Z,78.05
2022-10-19T19:51:43.800Z,77.93
2022-10-19T19:54:11.762Z,78.04
2022-10-19T19:56:42.034Z,77.82
2022-10-19T19:59:12.438Z,77.62
2022-10-19T20:01:40.742Z,77.43
2022-10-19T20:04:09.514Z,77.51
2022-10-19T20:06:40.716Z,77.68
2022-10-19T20:09:10.579Z,77.34
2022-10-19T20:11:42.445Z,77.57
2022-10-19T20:14:12.591Z,77.52
2022-10-19T20:16:40.726Z,77.74
2022-10-19T20:19:14.111Z,77.84
2022-10-19T20:21:42.212Z,78.03
2022-10-19T20:24:10.727Z,78.05
2022-10-19T20:26:38.416Z,77.93
2022-10-19T20:29:06.695Z,78.19
2022-10-19T20:31:39.425Z,78.17
2022-10-19T20:34:13.695Z,78.55
2022-10-19T20:36:42.043Z,79.40
2022-10-19T20:39:10.321Z,79.80
2022-10-19T20:41:38.225Z,79.50
2022-10-19T20:44:05.902Z,80.04
2022-10-19T20:46:34.316Z,80.32
2022-10-19T20:49:02.088Z,80.17
2022-10-19T20:51:35.021Z,80.25
2022-10-19T20:54:06.600Z,79.99
2022-10-19T20:56:37.601Z,80.01
2022-10-19T20:59:16.362Z,80.31
2022-10-19T21:01:46.296Z,80.27
2022-10-19T21:04:15.432Z,80.30
2022-10-19T21:06:46.739Z,80.44
2022-10-19T21:09:19.157Z,80.56
2022-10-19T21:11:50.198Z,81.14
2022-10-19T21:14:25.380Z,81.25
2022-10-19T21:16:58.641Z,81.35
2022-10-19T21:19:29.101Z,81.73
2022-10-19T21:22:03.528Z,81.81
2022-10-19T21:24:35.993Z,81.75
2022-10-19T21:27:07.634Z,81.66
2022-10-19T21:29:37.384Z,81.85
2022-10-19T21:32:05.266Z,82.36
2022-10-19T21:34:33.646Z,82.36
2022-10-19T21:37:01.425Z,82.50
2022-10-19T21:39:29.193Z,82.27
2022-10-19T21:41:57.907Z,82.80
2022-10-19T21:44:25.614Z,82.63
2022-10-19T21:46:53.269Z,83.07
2022-10-19T21:49:21.014Z,82.94
2022-10-19T21:51:54.315Z,83.33
2022-10-19T21:54:25.133Z,83.47
2022-10-19T21:56:54.977Z,83.76
2022-10-19T21:59:22.733Z,83.72
2022-10-19T22:01:50.519Z,83.81
2022-10-19T22:04:18.606Z,83.63
2022-10-19T22:06:46.572Z,83.67
2022-10-19T22:09:18.983Z,83.54
2022-10-19T22:11:47.581Z,84.08
2022-10-19T22:14:16.729Z,84.49
2022-10-19T22:16:44.841Z,84.48
2022-10-19T22:19:13.040Z,84.37
2022-10-19T22:21:41.057Z,84.74
2022-10-19T22:24:14.886Z,84.97
2022-10-19T22:26:46.956Z,85.51
2022-10-19T22:29:14.907Z,85.44
2022-10-19T22:31:43.367Z,85.55
2022-10-19T22:34:16.587Z,85.09
2022-10-19T22:36:45.166Z,85.23
2022-10-19T22:39:14.077Z,85.18
2022-10-19T22:41:41.832Z,85.64
2022-10-19T22:44:09.495Z,85.83
2022-10-19T22:46:37.212Z,86.31
2022-10-19T22:49:05.029Z,86.95
2022-10-19T22:51:32.808Z,88.10
2022-10-19T22:54:00.587Z,90.57
2022-10-19T22:56:28.441Z,89.41
2022-10-19T22:59:04.936Z,86.85
2022-10-19T23:01:33.486Z,86.78
2022-10-19T23:04:01.288Z,86.66
2022-10-19T23:06:29.831Z,86.56
2022-10-19T23:08:57.627Z,86.55
2022-10-19T23:11:25.392Z,87.63
2022-10-19T23:13:53.221Z,87.26
2022-10-19T23:16:21.090Z,87.57
2022-10-19T23:18:49.133Z,88.00
2022-10-19T23:21:17.037Z,87.58
2022-10-19T23:23:44.986Z,88.31
2022-10-19T23:26:17.374Z,89.38
2022-10-19T23:28:47.990Z,90.50
2022-10-19T23:31:25.069Z,90.10
2022-10-19T23:33:53.931Z,89.47
2022-10-19T23:36:26.677Z,88.75
2022-10-19T23:38:56.928Z,88.51
2022-10-19T23:41:25.205Z,88.74
2022-10-19T23:43:52.927Z,88.66
2022-10-19T23:46:20.808Z,88.73
2022-10-19T23:48:48.466Z,88.66
2022-10-19T23:51:19.881Z,88.47
2022-10-19T23:53:49.819Z,88.43
2022-10-19T23:56:21.878Z,88.32
2022-10-19T23:58:50.794Z,88.61
